Time;durP1;ratioP1;P1;durP2;ratioP2;P2;SDS_P1;SDS_P2;PMS_P1;PMS_P2;Temp;Humidity;BMP_temperature;BMP_pressure;BME280_temperature;BME280_humidity;BME280_pressure;Samples;Min_cycle;Max_cycle;Signal;HPM_P1;HPM_P2
2021/06/28 00:01:13;;;;;;;5.93;3.20;;;;;;;23.01;100.00;99658.48;1735661;80;20983;-71
2021/06/28 00:03:41;;;;;;;5.67;2.70;;;;;;;23.10;100.00;99663.44;1746282;80;20947;-69
2021/06/28 00:06:08;;;;;;;5.33;2.43;;;;;;;23.00;100.00;99659.02;1769969;80;20955;-70
2021/06/28 00:08:37;;;;;;;5.20;2.97;;;;;;;23.05;100.00;99663.48;1770930;80;21162;-63
2021/06/28 00:11:06;;;;;;;5.17;3.40;;;;;;;23.03;100.00;99669.61;1770434;80;21053;-70
2021/06/28 00:13:36;;;;;;;4.43;3.40;;;;;;;23.05;100.00;99673.58;1770172;80;21355;-71
2021/06/28 00:16:04;;;;;;;5.90;3.30;;;;;;;23.04;100.00;99661.38;1770007;80;20892;-71
2021/06/28 00:18:31;;;;;;;5.60;3.60;;;;;;;22.98;100.00;99659.82;1769864;79;20904;-68
2021/06/28 00:21:00;;;;;;;4.17;2.77;;;;;;;22.88;100.00;99657.23;1760565;79;20939;-70
2021/06/28 00:23:26;;;;;;;5.87;2.77;;;;;;;22.76;100.00;99662.89;1770436;80;21016;-68
2021/06/28 00:25:54;;;;;;;3.80;3.00;;;;;;;22.78;100.00;99659.97;1769957;80;20958;-70
2021/06/28 00:28:22;;;;;;;5.50;3.23;;;;;;;22.60;100.00;99662.76;1770257;80;21418;-70
2021/06/28 00:30:50;;;;;;;5.30;3.33;;;;;;;22.73;100.00;99661.32;1769552;80;20971;-67
2021/06/28 00:33:18;;;;;;;5.23;2.70;;;;;;;22.76;100.00;99667.41;1770171;80;21136;-69
2021/06/28 00:35:46;;;;;;;6.40;3.67;;;;;;;22.70;100.00;99673.31;1768050;79;20945;-70
2021/06/28 00:38:14;;;;;;;5.10;2.70;;;;;;;22.65;100.00;99677.86;1770251;80;20948;-72
2021/06/28 00:40:43;;;;;;;6.07;3.40;;;;;;;22.71;100.00;99678.88;1769951;80;21481;-68
2021/06/28 00:43:10;;;;;;;5.70;3.60;;;;;;;22.85;100.00;99684.37;1769400;80;21283;-70
2021/06/28 00:45:39;;;;;;;4.63;3.23;;;;;;;22.63;100.00;99686.66;1769632;80;22300;-70
2021/06/28 00:48:09;;;;;;;6.27;2.73;;;;;;;22.51;100.00;99683.81;1770532;80;21011;-68
2021/06/28 00:50:48;;;;;;;;;;;;;;;22.08;100.00;99691.44;1771796;80;21382;-64
2021/06/28 00:53:17;;;;;;;6.37;3.20;;;;;;;22.45;100.00;99687.55;1770236;80;20236;-69
2021/06/28 00:55:45;;;;;;;4.70;3.13;;;;;;;22.47;100.00;99690.74;1770969;80;21473;-69
2021/06/28 00:58:12;;;;;;;5.07;3.27;;;;;;;22.53;100.00;99682.20;1770403;80;21061;-70
2021/06/28 01:00:39;;;;;;;3.83;2.60;;;;;;;22.53;100.00;99682.98;1770162;80;20975;-62
2021/06/28 01:03:06;;;;;;;5.43;2.80;;;;;;;22.52;100.00;99688.05;1725786;82;21288;-62
2021/06/28 01:05:36;;;;;;;5.50;3.93;;;;;;;22.44;100.00;99689.96;1736021;80;21164;-70
2021/06/28 01:08:04;;;;;;;5.83;3.40;;;;;;;22.52;100.00;99688.05;1734354;82;20996;-69
2021/06/28 01:10:30;;;;;;;5.80;3.67;;;;;;;22.66;100.00;99680.26;1735298;80;22160;-67
2021/06/28 01:12:57;;;;;;;5.37;3.30;;;;;;;22.59;100.00;99683.22;1730364;81;20914;-64
2021/06/28 01:15:25;;;;;;;6.27;3.30;;;;;;;22.48;100.00;99678.25;1730670;81;21008;-65
2021/06/28 01:17:52;;;;;;;4.93;3.30;;;;;;;22.57;100.00;99682.69;1735506;81;20988;-66
2021/06/28 01:20:22;;;;;;;4.40;2.90;;;;;;;22.54;100.00;99681.94;1735415;81;21044;-67
2021/06/28 01:22:52;;;;;;;6.57;3.50;;;;;;;22.49;100.00;99679.83;1736245;80;21086;-65
2021/06/28 01:25:21;;;;;;;5.80;3.53;;;;;;;22.50;100.00;99682.73;1736614;81;22429;-65
2021/06/28 01:27:48;;;;;;;5.10;4.40;;;;;;;22.52;100.00;99684.06;1736131;81;21082;-66
2021/06/28 01:30:20;;;;;;;7.40;3.97;;;;;;;22.42;100.00;99679.34;1747044;80;21060;-65
2021/06/28 01:32:47;;;;;;;5.63;3.77;;;;;;;22.44;100.00;99683.32;1737778;80;21000;-60
2021/06/28 01:35:14;;;;;;;6.53;3.93;;;;;;;22.43;100.00;99683.07;1735286;80;21116;-65
2021/06/28 01:37:41;;;;;;;7.23;3.87;;;;;;;22.45;100.00;99676.94;1736532;81;21051;-66
2021/06/28 01:40:10;;;;;;;5.50;3.63;;;;;;;22.57;100.00;99674.72;1736030;80;21004;-67
2021/06/28 01:42:37;;;;;;;5.10;3.90;;;;;;;22.59;100.00;99685.09;1735716;81;21457;-61
2021/06/28 01:45:07;;;;;;;5.50;3.63;;;;;;;22.87;100.00;99682.75;1733744;80;21065;-65
2021/06/28 01:47:34;;;;;;;6.63;4.73;;;;;;;22.55;100.00;99686.17;1736128;81;22081;-66
2021/06/28 01:50:01;;;;;;;7.17;4.23;;;;;;;22.57;100.00;99688.54;1735525;80;21683;-65
2021/06/28 01:52:27;;;;;;;5.97;4.00;;;;;;;22.55;100.00;99693.35;1735725;80;20931;-65
2021/06/28 01:54:54;;;;;;;5.70;3.97;;;;;;;22.59;100.00;99691.19;1735096;81;21061;-65
2021/06/28 01:57:20;;;;;;;6.90;4.30;;;;;;;22.67;100.00;99691.13;1724603;81;21026;-67
2021/06/28 01:59:47;;;;;;;7.93;4.37;;;;;;;22.57;100.00;99685.88;1736392;81;21240;-66
2021/06/28 02:02:14;;;;;;;9.50;5.17;;;;;;;22.58;100.00;99690.94;1735972;81;20952;-68
2021/06/28 02:04:41;;;;;;;6.17;4.17;;;;;;;22.67;100.00;99699.11;1733995;81;20941;-61
2021/06/28 02:07:10;;;;;;;6.10;5.43;;;;;;;22.71;100.00;99698.02;1735483;80;21492;-64
2021/06/28 02:09:37;;;;;;;6.23;4.53;;;;;;;22.71;100.00;99696.69;1738506;81;21067;-65
2021/06/28 02:12:05;;;;;;;6.17;4.47;;;;;;;22.68;100.00;99694.58;1738619;80;21127;-66
2021/06/28 02:14:31;;;;;;;5.47;4.37;;;;;;;22.73;100.00;99704.66;1739335;80;21531;-62
2021/06/28 02:16:58;;;;;;;7.40;4.93;;;;;;;22.81;100.00;99704.59;1738122;80;21523;-61
2021/06/28 02:19:27;;;;;;;7.07;5.37;;;;;;;22.95;100.00;99704.77;1737429;80;21476;-65
2021/06/28 02:21:54;;;;;;;7.17;4.57;;;;;;;23.03;100.00;99702.84;1738565;80;21607;-67
2021/06/28 02:24:21;;;;;;;6.30;4.43;;;;;;;23.00;100.00;99700.22;1738061;80;21538;-67
2021/06/28 02:26:47;;;;;;;6.67;4.37;;;;;;;23.13;100.00;99699.31;1717521;81;21004;-68
2021/06/28 02:29:14;;;;;;;7.27;5.27;;;;;;;23.17;100.00;99690.48;1737987;80;21326;-66
2021/06/28 02:31:41;;;;;;;7.33;5.70;;;;;;;23.30;100.00;99684.53;1737104;80;21352;-68
2021/06/28 02:34:08;;;;;;;6.97;4.80;;;;;;;23.35;100.00;99686.34;1738999;80;20970;-67
2021/06/28 02:36:36;;;;;;;7.50;5.30;;;;;;;23.49;100.00;99688.59;1736471;80;20934;-69
2021/06/28 02:39:06;;;;;;;7.37;4.73;;;;;;;23.14;100.00;99686.27;1738505;80;21002;-63
2021/06/28 02:41:33;;;;;;;7.27;5.57;;;;;;;23.49;100.00;99685.94;1737900;80;21085;-67
2021/06/28 02:43:59;;;;;;;6.27;5.67;;;;;;;23.40;100.00;99680.95;1726158;81;21097;-66
2021/06/28 02:46:26;;;;;;;8.73;6.63;;;;;;;23.20;100.00;99682.50;1729450;82;20972;-66
2021/06/28 02:48:52;;;;;;;8.63;6.17;;;;;;;23.29;100.00;99684.79;1731134;82;21141;-66
2021/06/28 02:51:19;;;;;;;7.83;6.30;;;;;;;23.40;100.00;99685.48;1720729;82;21021;-66
2021/06/28 02:53:46;;;;;;;6.43;4.97;;;;;;;23.50;100.00;99688.84;1708169;82;21106;-68
2021/06/28 02:56:13;;;;;;;8.03;6.17;;;;;;;23.62;100.00;99688.98;1713105;82;21114;-65
2021/06/28 02:58:42;;;;;;;9.07;7.00;;;;;;;23.59;100.00;99690.88;1724983;81;21018;-66
2021/06/28 03:01:09;;;;;;;10.97;6.30;;;;;;;23.60;100.00;99685.80;1733679;78;21142;-64
2021/06/28 03:03:35;;;;;;;7.50;5.70;;;;;;;23.69;100.00;99686.81;1744706;80;21026;-66
2021/06/28 03:06:02;;;;;;;7.80;6.30;;;;;;;23.76;100.00;99681.94;1744297;80;21541;-66
2021/06/28 03:08:30;;;;;;;7.37;6.57;;;;;;;23.69;100.00;99691.59;1744700;80;20953;-66
2021/06/28 03:11:01;;;;;;;7.70;6.70;;;;;;;23.74;100.00;99672.11;1744703;80;21485;-66
2021/06/28 03:13:27;;;;;;;9.93;6.90;;;;;;;23.66;100.00;99680.17;1744048;80;21133;-66
2021/06/28 03:15:53;;;;;;;8.93;6.60;;;;;;;23.62;100.00;99683.66;1744667;81;20967;-65
2021/06/28 03:18:20;;;;;;;7.03;5.67;;;;;;;23.57;100.00;99680.53;1743577;81;20965;-66
2021/06/28 03:20:47;;;;;;;9.50;6.23;;;;;;;23.57;100.00;99680.53;1744309;80;22294;-66
2021/06/28 03:23:13;;;;;;;10.30;6.80;;;;;;;23.63;100.00;99681.25;1743111;81;21008;-65
2021/06/28 03:25:41;;;;;;;7.93;7.10;;;;;;;23.60;100.00;99675.16;1743502;81;21050;-67
2021/06/28 03:28:08;;;;;;;6.93;6.03;;;;;;;23.61;100.00;99676.23;1744541;80;21038;-66
2021/06/28 03:30:34;;;;;;;8.73;6.07;;;;;;;23.53;100.00;99676.84;1743596;81;21047;-65
2021/06/28 03:33:02;;;;;;;7.50;5.87;;;;;;;23.67;100.00;99687.08;1744152;81;20974;-62
2021/06/28 03:35:31;;;;;;;8.67;6.43;;;;;;;23.73;100.00;99677.18;1744689;80;20990;-67
2021/06/28 03:37:59;;;;;;;7.57;6.17;;;;;;;23.80;100.00;99690.94;1744676;81;21210;-66
2021/06/28 03:40:26;;;;;;;10.27;6.63;;;;;;;24.00;100.00;99691.22;1741645;81;20983;-61
2021/06/28 03:42:53;;;;;;;9.13;6.50;;;;;;;24.15;100.00;99691.57;1743540;80;21014;-67
2021/06/28 03:45:19;;;;;;;7.97;6.27;;;;;;;24.19;100.00;99695.23;1743814;80;21764;-69
2021/06/28 03:47:46;;;;;;;9.03;7.07;;;;;;;24.08;100.00;99697.78;1744266;80;21058;-69
2021/06/28 03:50:13;;;;;;;9.50;7.10;;;;;;;24.21;100.00;99701.09;1743719;81;21151;-70
2021/06/28 03:52:40;;;;;;;9.67;7.53;;;;;;;24.19;100.00;99697.36;1743568;80;20888;-70
2021/06/28 03:55:08;;;;;;;10.37;7.67;;;;;;;24.18;100.00;99696.33;1743445;81;20968;-69
2021/06/28 03:57:35;;;;;;;10.67;7.90;;;;;;;24.24;100.00;99701.82;1744876;80;21098;-68
2021/06/28 04:00:07;;;;;;;8.33;7.13;;;;;;;24.27;100.00;99698.05;1744394;80;21074;-70
2021/06/28 04:02:37;;;;;;;10.30;7.83;;;;;;;24.24;100.00;99702.64;1719799;81;21217;-62
2021/06/28 04:05:05;;;;;;;11.87;8.00;;;;;;;24.30;100.00;99705.22;1723120;82;21538;-70
2021/06/28 04:07:32;;;;;;;8.10;7.27;;;;;;;24.27;100.00;99702.04;1723940;81;21066;-68
2021/06/28 04:10:00;;;;;;;13.17;8.57;;;;;;;24.37;100.00;99704.33;1723565;83;20963;-66
2021/06/28 04:12:27;;;;;;;10.57;8.73;;;;;;;24.45;100.00;99702.38;1691584;83;20994;-67
2021/06/28 04:14:54;;;;;;;11.53;9.20;;;;;;;24.58;100.00;99705.63;1727377;81;21090;-68
2021/06/28 04:17:21;;;;;;;10.63;8.00;;;;;;;24.45;100.00;99706.37;1710133;81;21027;-62
2021/06/28 04:19:49;;;;;;;12.93;8.93;;;;;;;24.57;100.00;99710.72;1711183;81;21103;-71
2021/06/28 04:22:15;;;;;;;11.10;9.63;;;;;;;24.78;100.00;99707.77;1704838;81;21073;-67
2021/06/28 04:24:42;;;;;;;13.07;8.73;;;;;;;25.15;100.00;99698.89;1710160;82;21015;-69
2021/06/28 04:27:09;;;;;;;9.53;8.43;;;;;;;25.44;100.00;99695.98;1707858;81;21137;-70
2021/06/28 04:29:36;;;;;;;10.70;9.33;;;;;;;25.60;100.00;99691.14;1678702;83;21008;-68
2021/06/28 04:32:05;;;;;;;10.60;9.53;;;;;;;25.85;100.00;99692.02;1726484;81;22443;-67
2021/06/28 04:34:31;;;;;;;10.53;9.43;;;;;;;25.93;100.00;99695.31;1717602;81;21071;-65
2021/06/28 04:36:58;;;;;;;12.87;10.67;;;;;;;25.78;100.00;99696.14;1681903;83;20991;-70
2021/06/28 04:39:24;;;;;;;14.13;10.37;;;;;;;25.94;100.00;99690.21;1712607;83;21173;-67
2021/06/28 04:41:51;;;;;;;11.20;10.00;;;;;;;25.97;100.00;99690.16;1713884;83;21060;-70
2021/06/28 04:44:19;;;;;;;10.53;9.30;;;;;;;26.07;100.00;99691.84;1714551;81;20896;-68
2021/06/28 04:46:45;;;;;;;12.40;10.00;;;;;;;26.19;100.00;99693.45;1718036;81;20983;-70
2021/06/28 04:49:12;;;;;;;12.50;11.00;;;;;;;26.41;100.00;99696.71;1709055;83;21129;-69
2021/06/28 04:51:40;;;;;;;13.07;11.07;;;;;;;26.40;100.00;99700.45;1714913;81;21156;-61
2021/06/28 04:54:07;;;;;;;12.73;11.27;;;;;;;26.58;100.00;99698.75;1713414;82;21018;-71
2021/06/28 04:56:34;;;;;;;16.30;11.23;;;;;;;26.55;100.00;99699.34;1712825;81;21063;-71
2021/06/28 04:59:00;;;;;;;12.63;11.03;;;;;;;26.56;100.00;99706.30;1713500;82;21460;-71
2021/06/28 05:01:27;;;;;;;12.73;11.27;;;;;;;26.47;100.00;99700.07;1718106;81;21511;-71
2021/06/28 05:03:54;;;;;;;13.67;12.37;;;;;;;26.38;100.00;99702.10;1746650;81;22375;-62
2021/06/28 05:06:20;;;;;;;14.07;12.37;;;;;;;26.22;100.00;99700.87;1747097;81;21783;-72
2021/06/28 05:08:48;;;;;;;14.77;13.27;;;;;;;25.99;100.00;99710.70;1746323;81;21480;-71
2021/06/28 05:11:15;;;;;;;16.93;14.07;;;;;;;25.95;100.00;99711.84;1744270;80;21086;-71
2021/06/28 05:13:41;;;;;;;14.93;13.40;;;;;;;25.78;100.00;99714.31;1747285;80;21018;-61
2021/06/28 05:16:08;;;;;;;14.70;13.20;;;;;;;25.73;100.00;99710.39;1746398;80;21152;-65
2021/06/28 05:18:35;;;;;;;14.63;13.23;;;;;;;25.82;100.00;99720.64;1746881;80;20983;-72
2021/06/28 05:21:01;;;;;;;14.00;12.63;;;;;;;25.89;100.00;99725.04;1744924;80;21054;-70
2021/06/28 05:23:28;;;;;;;15.70;12.90;;;;;;;25.78;100.00;99722.32;1747437;80;20968;-69
2021/06/28 05:25:56;;;;;;;16.03;13.87;;;;;;;25.79;100.00;99721.77;1750033;80;21556;-71
2021/06/28 05:28:23;;;;;;;14.30;12.80;;;;;;;25.82;100.00;99724.64;1747144;81;22205;-71
2021/06/28 05:30:50;;;;;;;14.47;12.97;;;;;;;25.88;100.00;99730.69;1747026;81;21436;-70
2021/06/28 05:33:16;;;;;;;13.90;12.27;;;;;;;25.92;100.00;99729.00;1745000;81;20972;-64
2021/06/28 05:35:43;;;;;;;16.67;14.03;;;;;;;25.82;100.00;99732.66;1746099;82;21382;-69
2021/06/28 05:38:10;;;;;;;17.50;14.83;;;;;;;25.90;100.00;99733.84;1747103;81;20960;-70
2021/06/28 05:40:36;;;;;;;17.53;15.27;;;;;;;25.83;100.00;99742.23;1746981;81;21089;-71
2021/06/28 05:43:04;;;;;;;15.47;13.87;;;;;;;25.93;100.00;99747.39;1746789;81;20935;-61
2021/06/28 05:45:32;;;;;;;14.43;12.93;;;;;;;26.00;100.00;99744.88;1747266;80;21061;-73
2021/06/28 05:47:58;;;;;;;16.90;15.20;;;;;;;26.07;100.00;99746.60;1747453;81;20923;-61
2021/06/28 05:50:26;;;;;;;16.83;15.37;;;;;;;26.11;100.00;99748.92;1747468;81;21062;-70
2021/06/28 05:52:53;;;;;;;15.03;13.50;;;;;;;26.04;100.00;99748.53;1747083;81;21148;-71
2021/06/28 05:55:19;;;;;;;15.87;14.17;;;;;;;26.21;100.00;99751.36;1747015;81;20979;-65
2021/06/28 05:57:46;;;;;;;18.70;16.77;;;;;;;26.19;100.00;99750.88;1752440;80;21018;-69
2021/06/28 06:00:14;;;;;;;19.00;17.17;;;;;;;26.29;100.00;99753.35;1747162;80;21092;-68
2021/06/28 06:02:42;;;;;;;18.33;16.47;;;;;;;26.41;100.00;99750.16;1742779;80;21082;-67
2021/06/28 06:05:10;;;;;;;18.43;16.63;;;;;;;26.51;100.00;99753.95;1727060;81;21070;-62
2021/06/28 06:07:37;;;;;;;17.53;15.83;;;;;;;26.64;100.00;99757.14;1705417;84;21049;-65
2021/06/28 06:10:06;;;;;;;20.17;18.07;;;;;;;26.63;100.00;99758.77;1714548;82;20999;-68
2021/06/28 06:12:33;;;;;;;19.03;17.03;;;;;;;26.61;100.00;99762.30;1707995;82;21068;-68
2021/06/28 06:14:59;;;;;;;17.73;15.97;;;;;;;26.60;100.00;99760.73;1716029;81;21453;-63
2021/06/28 06:17:26;;;;;;;19.70;17.80;;;;;;;26.37;100.00;99755.86;1733478;81;21200;-70
2021/06/28 06:19:53;;;;;;;19.90;18.00;;;;;;;26.30;100.00;99763.48;1736769;81;20948;-70
2021/06/28 06:22:19;;;;;;;18.50;16.53;;;;;;;26.41;100.00;99764.30;1724035;81;21036;-64
2021/06/28 06:24:46;;;;;;;17.40;14.73;;;;;;;26.54;100.00;99766.72;1723830;81;21008;-70
2021/06/28 06:27:12;;;;;;;18.77;16.83;;;;;;;26.72;100.00;99769.55;1723450;81;20996;-69
2021/06/28 06:29:39;;;;;;;20.17;18.17;;;;;;;26.96;100.00;99770.05;1724543;81;21140;-70
2021/06/28 06:32:07;;;;;;;18.80;16.80;;;;;;;27.31;100.00;99760.38;1724078;81;22232;-71
2021/06/28 06:34:33;;;;;;;18.23;16.60;;;;;;;27.53;100.00;99762.78;1723942;81;21400;-64
2021/06/28 06:37:00;;;;;;;19.33;17.43;;;;;;;27.60;100.00;99767.93;1664441;85;21832;-71
2021/06/28 06:39:26;;;;;;;22.10;16.37;;;;;;;27.85;100.00;99770.52;1704965;81;21597;-71
2021/06/28 06:41:54;;;;;;;18.07;16.17;;;;;;;28.21;100.00;99771.39;1713121;81;22428;-71
2021/06/28 06:44:20;;;;;;;19.47;15.67;;;;;;;28.74;100.00;99762.32;1682033;83;20956;-71
2021/06/28 06:46:47;;;;;;;16.30;14.85;;;;;;;29.14;100.00;99758.14;1705178;83;20956;-61
2021/06/28 06:49:14;;;;;;;15.08;13.70;;;;;;;29.62;100.00;99761.87;1718675;82;21554;-68
2021/06/28 06:51:41;;;;;;;14.23;12.55;;;;;;;30.43;100.00;99753.31;1698811;82;21307;-71
2021/06/28 06:54:07;;;;;;;12.95;11.68;;;;;;;31.05;100.00;99747.08;1706478;82;22253;-69
2021/06/28 06:56:34;;;;;;;15.25;12.05;;;;;;;31.59;100.00;99752.35;1718624;82;20988;-68
2021/06/28 06:59:01;;;;;;;11.60;10.40;;;;;;;32.01;100.00;99756.19;1706274;82;21426;-68
2021/06/28 07:01:27;;;;;;;13.58;10.68;;;;;;;32.10;100.00;99756.87;1718444;82;21082;-69
2021/06/28 07:03:54;;;;;;;11.15;10.05;;;;;;;32.29;100.00;99755.48;1707718;82;21035;-69
2021/06/28 07:06:20;;;;;;;12.28;10.30;;;;;;;32.39;100.00;99761.20;1709947;83;21260;-70
2021/06/28 07:08:47;;;;;;;10.68;9.68;;;;;;;32.55;100.00;99758.59;1735395;80;21003;-62
2021/06/28 07:11:14;;;;;;;10.60;9.60;;;;;;;32.28;100.00;99766.03;1736863;80;21039;-70
2021/06/28 07:13:43;;;;;;;12.95;9.48;;;;;;;32.42;100.00;99774.02;1716189;82;21018;-67
2021/06/28 07:16:10;;;;;;;11.18;10.15;;;;;;;32.56;100.00;99774.99;1712888;83;21006;-64
2021/06/28 07:18:37;;;;;;;10.03;9.00;;;;;;;32.49;100.00;99773.44;1712225;82;21096;-67
2021/06/28 07:21:04;;;;;;;10.10;9.18;;;;;;;32.46;100.00;99764.67;1749115;80;21556;-65
2021/06/28 07:23:31;;;;;;;10.45;9.45;;;;;;;32.58;100.00;99775.98;1751138;80;21030;-64
2021/06/28 07:25:59;;;;;;;11.63;10.53;;;;;;;32.74;100.00;99768.75;1736132;80;21102;-67
2021/06/28 07:28:25;;;;;;;10.48;9.43;;;;;;;33.15;100.00;99775.67;1750463;79;20987;-69
2021/06/28 07:30:56;;;;;;;10.20;9.23;;;;;;;33.51;100.00;99765.78;1740801;80;22190;-68
2021/06/28 07:33:21;;;;;;;8.83;7.92;;;;;;;33.85;100.00;99770.25;1734925;80;21074;-63
2021/06/28 07:35:50;;;;;;;11.15;8.73;;;;;;;34.59;99.15;99772.49;1733965;80;21056;-65
2021/06/28 07:38:17;;;;;;;8.58;7.78;;;;;;;35.12;87.13;99775.22;1745420;80;20931;-69
2021/06/28 07:40:44;;;;;;;8.95;8.03;;;;;;;35.26;80.51;99774.11;1755100;80;20928;-68
2021/06/28 07:43:11;;;;;;;8.48;7.65;;;;;;;35.28;80.04;99777.26;1745171;80;21095;-69
2021/06/28 07:45:37;;;;;;;7.83;7.10;;;;;;;35.37;77.71;99779.14;1743997;80;20892;-70
2021/06/28 07:48:06;;;;;;;8.83;7.25;;;;;;;35.43;73.57;99776.36;1744771;80;20991;-68
2021/06/28 07:50:34;;;;;;;9.45;8.45;;;;;;;35.42;74.10;99779.41;1743931;80;20928;-68
2021/06/28 07:53:01;;;;;;;8.68;7.83;;;;;;;35.33;73.31;99787.22;1744991;80;20979;-66
2021/06/28 07:55:27;;;;;;;8.65;7.85;;;;;;;35.23;72.05;99783.77;1743855;80;21721;-73
2021/06/28 07:57:54;;;;;;;8.18;7.20;;;;;;;35.25;76.14;99784.17;1744394;80;21581;-71
2021/06/28 08:00:20;;;;;;;9.35;8.33;;;;;;;35.32;71.61;99790.30;1744804;80;21042;-72
2021/06/28 08:02:47;;;;;;;8.88;7.35;;;;;;;35.65;72.35;99787.00;1712641;83;21155;-70
2021/06/28 08:05:14;;;;;;;7.95;7.20;;;;;;;35.90;68.99;99789.30;1716970;83;21043;-61
2021/06/28 08:07:41;;;;;;;8.20;7.30;;;;;;;35.72;65.41;99784.38;1709194;83;21195;-71
2021/06/28 08:10:11;;;;;;;8.88;6.97;;;;;;;35.76;66.72;99794.73;1737212;82;20916;-71
2021/06/28 08:12:42;;;;;;;13.62;6.87;;;;;;;35.99;63.66;99793.36;1742815;80;20984;-69
2021/06/28 08:15:10;;;;;;;7.97;7.12;;;;;;;36.22;64.57;99799.30;1743539;80;20940;-66
2021/06/28 08:17:38;;;;;;;8.03;7.22;;;;;;;36.70;59.97;99798.94;1743952;80;21093;-70
2021/06/28 08:20:06;;;;;;;7.53;6.72;;;;;;;36.75;57.89;99795.13;1743766;80;21054;-69
2021/06/28 08:22:33;;;;;;;8.65;7.25;;;;;;;36.88;57.82;99807.88;1743697;81;21002;-67
2021/06/28 08:25:00;;;;;;;8.03;6.85;;;;;;;36.99;56.98;99806.86;1731751;80;21051;-62
2021/06/28 08:27:27;;;;;;;7.22;6.53;;;;;;;37.09;55.13;99809.49;1743677;80;21106;-67
2021/06/28 08:29:54;;;;;;;7.90;6.97;;;;;;;37.13;56.19;99808.17;1743853;81;21165;-70
2021/06/28 08:32:20;;;;;;;8.08;6.65;;;;;;;37.41;58.29;99807.09;1743894;80;21134;-68
2021/06/28 08:34:47;;;;;;;10.23;6.12;;;;;;;37.72;55.05;99803.64;1742649;82;21071;-64
2021/06/28 08:37:13;;;;;;;6.95;6.25;;;;;;;38.33;52.64;99807.53;1742958;81;21048;-62
2021/06/28 08:39:40;;;;;;;9.33;7.15;;;;;;;38.92;49.30;99801.97;1743883;80;21117;-69
2021/06/28 08:42:07;;;;;;;6.50;5.90;;;;;;;39.49;45.96;99802.64;1740128;81;21053;-70
2021/06/28 08:44:35;;;;;;;6.95;6.25;;;;;;;39.79;44.49;99800.30;1743227;81;21081;-68
2021/06/28 08:47:04;;;;;;;6.28;5.62;;;;;;;39.67;42.70;99804.77;1743824;81;20975;-68
2021/06/28 08:49:34;;;;;;;6.93;6.10;;;;;;;39.31;43.98;99801.27;1711228;80;21027;-67
2021/06/28 08:52:00;;;;;;;9.38;6.08;;;;;;;39.33;44.53;99804.39;1737877;81;21042;-71
2021/06/28 08:54:26;;;;;;;7.20;6.08;;;;;;;39.49;43.86;99806.14;1750043;81;21089;-69
2021/06/28 08:56:54;;;;;;;7.10;5.78;;;;;;;39.59;44.22;99797.18;1749491;81;21206;-69
2021/06/28 08:59:21;;;;;;;6.28;5.28;;;;;;;39.63;42.63;99787.05;1749027;81;20947;-66
2021/06/28 09:01:47;;;;;;;6.42;5.83;;;;;;;39.71;42.57;99783.75;1747582;81;21066;-70
2021/06/28 09:04:14;;;;;;;6.60;5.85;;;;;;;39.71;43.22;99782.97;1727901;81;21067;-70
2021/06/28 09:06:42;;;;;;;6.25;4.95;;;;;;;40.02;44.06;99784.84;1723332;83;20961;-70
2021/06/28 09:09:12;;;;;;;7.47;5.92;;;;;;;40.24;40.34;99780.13;1717340;82;21153;-70
2021/06/28 09:11:52;;;;;;;6.75;5.33;;;;;;;40.34;39.87;99786.70;1712604;83;21071;-63
2021/06/28 09:14:24;;;;;;;7.40;5.83;;;;;;;40.02;40.14;99788.16;1712951;83;21112;-69
2021/06/28 09:16:49;;;;;;;6.92;6.25;;;;;;;39.69;40.75;99788.80;1713677;81;21463;-70
2021/06/28 09:19:18;;;;;;;6.55;5.95;;;;;;;39.30;41.45;99792.30;1712685;81;20976;-70
2021/06/28 09:21:53;;;;;;;7.17;5.87;;;;;;;38.67;43.30;99795.05;1712571;81;21163;-69
2021/06/28 09:24:30;;;;;;;5.85;5.12;;;;;;;38.68;43.75;99793.88;1713790;83;21450;-69
2021/06/28 09:27:11;;;;;;;5.92;5.17;;;;;;;38.67;42.65;99787.66;1714038;83;21036;-61
2021/06/28 09:29:42;;;;;;;7.20;5.58;;;;;;;38.99;41.69;99780.19;1711879;83;21079;-67
2021/06/28 09:32:14;;;;;;;5.58;4.67;;;;;;;39.32;40.62;99779.05;1713856;82;20984;-68
2021/06/28 09:34:41;;;;;;;7.62;5.03;;;;;;;39.18;40.92;99777.08;1712929;81;21534;-64
2021/06/28 09:37:14;;;;;;;6.08;4.67;;;;;;;39.50;39.67;99774.19;1703561;83;21438;-69
2021/06/28 09:39:45;;;;;;;9.78;4.92;;;;;;;39.43;40.18;99774.96;1711455;83;21920;-70
2021/06/28 09:42:16;;;;;;;5.95;5.35;;;;;;;39.40;41.23;99769.72;1704837;83;21533;-68
2021/06/28 09:45:09;;;;;;;5.60;5.10;;;;;;;39.38;41.70;99767.18;1715847;83;21128;-69
2021/06/28 09:47:35;;;;;;;5.67;4.92;;;;;;;39.51;41.58;99764.83;1690523;84;21163;-68
2021/06/28 09:50:19;;;;;;;6.50;5.15;;;;;;;39.95;39.55;99775.90;1683505;84;21497;-71
2021/06/28 09:52:56;;;;;;;5.83;4.80;;;;;;;39.60;38.53;99766.59;1717775;82;21121;-68
2021/06/28 09:55:33;;;;;;;8.38;4.83;;;;;;;39.02;40.22;99771.80;1713436;83;21039;-69
2021/06/28 09:58:22;;;;;;;6.40;5.00;;;;;;;38.68;41.09;99764.72;1701732;83;21138;-64
2021/06/28 10:01:04;;;;;;;5.78;4.60;;;;;;;38.49;43.79;99771.05;1712694;81;21194;-68
2021/06/28 10:03:44;;;;;;;5.70;4.55;;;;;;;38.61;42.57;99763.92;1712663;83;21474;-65
2021/06/28 10:06:32;;;;;;;5.80;4.58;;;;;;;38.62;41.78;99768.97;1712353;81;21000;-66
2021/06/28 10:08:50;;;;;;;7.17;5.35;;;;;;;38.40;43.33;99764.61;1701629;83;21226;-69
2021/06/28 10:11:20;;;;;;;7.22;5.42;;;;;;;38.18;44.31;99754.18;1743394;81;20995;-68
2021/06/28 10:13:57;;;;;;;6.15;4.95;;;;;;;37.82;44.68;99752.61;1744321;81;21861;-68
2021/06/28 10:16:27;;;;;;;8.98;4.97;;;;;;;37.87;45.62;99761.77;1744483;80;20947;-70
2021/06/28 10:18:56;;;;;;;10.58;8.30;;;;;;;37.71;46.67;99753.91;1744124;80;21102;-64
2021/06/28 10:21:24;;;;;;;11.40;8.95;;;;;;;37.57;48.54;99764.67;1743389;80;21046;-63
2021/06/28 10:23:51;;;;;;;8.38;6.60;;;;;;;37.41;47.01;99760.87;1743948;80;21129;-69
2021/06/28 10:26:17;;;;;;;9.13;6.83;;;;;;;37.33;47.06;99753.79;1745008;80;21139;-69
2021/06/28 10:28:44;;;;;;;6.62;5.70;;;;;;;37.55;48.36;99763.51;1744380;80;20983;-66
2021/06/28 10:31:11;;;;;;;10.08;5.30;;;;;;;37.83;46.53;99758.25;1743066;82;20931;-68
2021/06/28 10:33:39;;;;;;;8.23;4.78;;;;;;;37.81;46.42;99755.70;1743283;80;21466;-67
2021/06/28 10:36:09;;;;;;;5.62;4.17;;;;;;;37.64;47.85;99763.95;1744417;80;22100;-69
2021/06/28 10:38:51;;;;;;;5.60;4.47;;;;;;;37.46;44.21;99764.59;1745402;80;24546;-64
2021/06/28 10:41:41;;;;;;;19.45;6.72;;;;;;;37.12;44.66;99779.41;1739871;81;21373;-64
2021/06/28 10:44:15;;;;;;;5.30;4.40;;;;;;;36.74;46.57;99773.95;1729823;80;20945;-67
2021/06/28 10:46:54;;;;;;;7.78;6.03;;;;;;;36.47;47.56;99778.69;1743493;80;20982;-69
2021/06/28 10:49:50;;;;;;;6.03;4.87;;;;;;;36.15;49.71;99774.19;1744280;80;21053;-70
2021/06/28 10:52:42;;;;;;;6.60;5.12;;;;;;;36.19;51.20;99767.45;1735899;81;21162;-68
2021/06/28 10:55:23;;;;;;;8.20;4.87;;;;;;;36.58;52.88;99763.11;1720262;80;21418;-62
2021/06/28 10:57:56;;;;;;;6.30;4.00;;;;;;;37.15;47.82;99763.14;1743516;81;21018;-61
2021/06/28 11:00:52;;;;;;;5.93;4.67;;;;;;;37.37;48.50;99755.95;1742149;81;21066;-70
2021/06/28 11:03:33;;;;;;;7.70;6.08;;;;;;;37.79;46.38;99749.87;1732896;80;21007;-62
2021/06/28 11:06:22;;;;;;;6.10;4.92;;;;;;;37.94;47.38;99753.68;1714129;83;21147;-70
2021/06/28 11:09:07;;;;;;;;;;;;;;;38.09;48.60;99764.64;1716376;81;21553;-69
2021/06/28 11:11:48;;;;;;;5.92;3.87;;;;;;;38.46;45.21;99754.92;1713246;81;20502;-68
2021/06/28 11:14:26;;;;;;;6.12;3.60;;;;;;;38.72;44.21;99753.83;1715515;78;21251;-66
2021/06/28 11:17:10;;;;;;;6.45;4.20;;;;;;;38.84;42.08;99748.63;1742369;80;21012;-68
2021/06/28 11:20:05;;;;;;;4.37;3.20;;;;;;;38.99;39.58;99751.56;1759891;79;21547;-62
2021/06/28 11:22:45;;;;;;;5.53;4.17;;;;;;;39.13;39.07;99745.33;1734184;82;21450;-69
2021/06/28 11:25:18;;;;;;;5.25;3.55;;;;;;;39.08;41.05;99751.95;1724488;82;20924;-70
2021/06/28 11:27:49;;;;;;;5.72;3.80;;;;;;;38.97;41.47;99757.97;1801134;79;20910;-71
2021/06/28 11:30:19;;;;;;;;;;;;;;;38.52;41.26;99753.95;1804265;79;20999;-71
2021/06/28 11:33:06;;;;;;;8.18;4.08;;;;;;;38.18;41.63;99755.54;1801221;78;21129;-67